Time;durP1;ratioP1;P1;durP2;ratioP2;P2;SDS_P1;SDS_P2;PMS_P1;PMS_P2;Temp;Humidity;BMP_temperature;BMP_pressure;BME280_temperature;BME280_humidity;BME280_pressure;Samples;Min_cycle;Max_cycle;Signal;HPM_P1;HPM_P2
2022/05/28 00:00:56;;;;;;;1999.90;999.90;;;;;;;14.90;100.00;95477.06;5098110;28;20198;-60
2022/05/28 00:03:22;;;;;;;1999.90;999.90;;;;;;;14.83;100.00;95480.75;5096853;28;20265;-63
2022/05/28 00:05:48;;;;;;;1999.90;999.90;;;;;;;14.87;100.00;95481.44;5097913;28;20183;-62
2022/05/28 00:08:13;;;;;;;1999.90;999.90;;;;;;;14.87;100.00;95477.91;5098082;28;20192;-62
2022/05/28 00:10:39;;;;;;;1999.90;999.90;;;;;;;14.79;100.00;95477.28;5098483;28;20195;-62
2022/05/28 00:13:05;;;;;;;1999.90;999.90;;;;;;;14.74;100.00;95480.56;5098088;28;20222;-62
2022/05/28 00:15:30;;;;;;;1999.90;999.90;;;;;;;14.68;100.00;95476.75;5097666;28;20184;-62
2022/05/28 00:17:56;;;;;;;1999.90;999.90;;;;;;;14.65;100.00;95483.16;5097759;28;20207;-61
2022/05/28 00:20:21;;;;;;;1999.90;999.90;;;;;;;14.57;100.00;95470.72;5097408;28;20275;-60
2022/05/28 00:22:47;;;;;;;1999.90;999.90;;;;;;;14.47;100.00;95474.50;5097756;28;20180;-61
2022/05/28 00:25:16;;;;;;;1999.90;999.90;;;;;;;14.39;100.00;95461.34;5098524;28;20279;-62
2022/05/28 00:27:41;;;;;;;1999.90;999.90;;;;;;;14.34;100.00;95461.84;5097706;28;20191;-61
2022/05/28 00:30:10;;;;;;;1999.90;999.90;;;;;;;14.23;100.00;95458.53;5097386;28;20194;-61
2022/05/28 00:32:35;;;;;;;1999.90;999.90;;;;;;;14.26;100.00;95463.19;5097286;28;20184;-61
2022/05/28 00:35:02;;;;;;;1999.90;999.90;;;;;;;14.25;100.00;95462.44;5097574;28;20272;-61
2022/05/28 00:37:28;;;;;;;1999.90;999.90;;;;;;;14.22;100.00;95454.25;5097750;28;20191;-62
2022/05/28 00:39:53;;;;;;;1999.90;999.90;;;;;;;14.18;100.00;95454.31;5097630;28;20186;-64
2022/05/28 00:42:18;;;;;;;1999.90;999.90;;;;;;;14.14;100.00;95448.13;5097722;28;20283;-62
2022/05/28 00:44:44;;;;;;;1999.90;999.90;;;;;;;14.06;100.00;95446.69;5097972;28;20179;-62
2022/05/28 00:47:09;;;;;;;1999.90;999.90;;;;;;;14.00;100.00;95450.38;5097610;28;20187;-62
2022/05/28 00:49:35;;;;;;;1999.90;999.90;;;;;;;13.93;100.00;95454.03;5097325;28;20183;-62
2022/05/28 00:52:04;;;;;;;1999.90;999.90;;;;;;;13.91;100.00;95442.69;5097528;28;20187;-62
2022/05/28 00:54:33;;;;;;;1999.90;999.90;;;;;;;13.86;100.00;95447.91;5097145;28;20215;-62
2022/05/28 00:56:59;;;;;;;1999.90;999.90;;;;;;;13.86;100.00;95451.44;5115341;28;20187;-62
2022/05/28 00:59:24;;;;;;;1999.90;999.90;;;;;;;13.82;100.00;95445.25;5097610;28;20240;-60
2022/05/28 01:01:56;;;;;;;1999.90;999.90;;;;;;;13.83;100.00;95446.78;5097584;28;20187;-61
2022/05/28 01:04:51;;;;;;;1999.90;999.90;;;;;;;13.86;100.00;95442.41;5097457;28;20298;-60
2022/05/28 01:07:30;;;;;;;1999.90;999.90;;;;;;;13.89;100.00;95436.88;5097225;28;20228;-63
2022/05/28 01:10:06;;;;;;;1999.90;999.90;;;;;;;14.00;100.00;95437.44;5097516;28;20199;-60
2022/05/28 01:12:45;;;;;;;1999.90;999.90;;;;;;;14.07;100.00;95428.25;5096645;28;20195;-59
2022/05/28 01:15:13;;;;;;;1999.90;999.90;;;;;;;14.15;100.00;95433.19;5096688;28;20210;-61
2022/05/28 01:17:47;;;;;;;1999.90;999.90;;;;;;;14.21;100.00;95436.97;5096554;28;20306;-61
2022/05/28 01:20:30;;;;;;;1999.90;999.90;;;;;;;14.25;100.00;95429.47;5097093;28;20188;-61
2022/05/28 01:23:09;;;;;;;1999.90;999.90;;;;;;;14.21;100.00;95431.50;5096778;28;20214;-61
2022/05/28 01:26:08;;;;;;;1999.90;999.90;;;;;;;14.29;100.00;95430.16;5097084;28;20270;-62
2022/05/28 01:28:38;;;;;;;1999.90;999.90;;;;;;;14.29;100.00;95427.41;5096549;28;20194;-62
2022/05/28 01:31:05;;;;;;;1999.90;999.90;;;;;;;14.33;100.00;95428.09;5096716;28;20199;-61
2022/05/28 01:33:33;;;;;;;1999.90;999.90;;;;;;;14.30;100.00;95423.47;5096930;28;20204;-61
2022/05/28 01:35:59;;;;;;;1999.90;999.90;;;;;;;14.31;100.00;95425.00;5096527;28;20226;-62
2022/05/28 01:38:26;;;;;;;1999.90;999.90;;;;;;;14.29;100.00;95421.91;5096439;28;20286;-62
2022/05/28 01:40:52;;;;;;;1999.90;999.90;;;;;;;14.24;100.00;95419.66;5114467;28;20175;-61
2022/05/28 01:43:19;;;;;;;1999.90;999.90;;;;;;;14.31;100.00;95424.25;5096365;28;20240;-62
2022/05/28 01:45:47;;;;;;;1999.90;999.90;;;;;;;14.32;100.00;95421.06;5096436;28;20191;-61
2022/05/28 01:48:13;;;;;;;1999.90;999.90;;;;;;;14.29;100.00;95421.13;5096463;28;20225;-61
2022/05/28 01:50:45;;;;;;;1999.90;999.90;;;;;;;14.37;100.00;95423.31;5096431;28;20179;-60
2022/05/28 01:56:05;;;;;;;1999.90;999.90;;;;;;;14.44;100.00;95416.88;5076213;28;20206;-65
2022/05/28 01:58:31;;;;;;;1999.90;999.90;;;;;;;14.40;100.00;95418.94;5096226;28;20191;-66
2022/05/28 02:00:59;;;;;;;1999.90;999.90;;;;;;;14.44;100.00;95430.59;5096148;28;20188;-65
2022/05/28 02:03:26;;;;;;;1999.90;999.90;;;;;;;14.40;100.00;95433.44;5096013;28;20274;-65
2022/05/28 02:05:51;;;;;;;1999.90;999.90;;;;;;;14.39;100.00;95426.38;5096095;28;20187;-65
2022/05/28 02:08:17;;;;;;;1999.90;999.90;;;;;;;14.39;100.00;95420.88;5096167;28;20183;-64
2022/05/28 02:10:51;;;;;;;1999.90;999.90;;;;;;;14.44;100.00;95423.16;5096129;28;20242;-64
2022/05/28 02:13:28;;;;;;;1999.90;999.90;;;;;;;14.41;100.00;95424.00;5095646;28;20211;-61
2022/05/28 02:16:14;;;;;;;1999.90;999.90;;;;;;;14.45;100.00;95421.94;5096750;28;20199;-61
2022/05/28 02:18:49;;;;;;;1999.90;999.90;;;;;;;14.42;100.00;95419.28;5096411;28;20179;-61
2022/05/28 02:21:26;;;;;;;1999.90;999.90;;;;;;;14.35;100.00;95420.19;5095950;28;20219;-61
2022/05/28 02:24:01;;;;;;;1999.90;999.90;;;;;;;14.39;100.00;95420.88;5096297;28;20263;-61
2022/05/28 02:26:43;;;;;;;1999.90;999.90;;;;;;;14.32;100.00;95418.31;5097392;28;20219;-61
2022/05/28 02:29:08;;;;;;;1999.90;999.90;;;;;;;14.33;100.00;95411.63;5100012;28;20192;-60
2022/05/28 02:31:34;;;;;;;1999.90;999.90;;;;;;;14.25;100.00;95399.25;5099672;28;20198;-60
2022/05/28 02:34:00;;;;;;;1999.90;999.90;;;;;;;14.10;100.00;95408.97;5099428;28;20207;-59
2022/05/28 02:36:27;;;;;;;1999.90;999.90;;;;;;;14.04;100.00;95404.38;5099385;28;20242;-60
2022/05/28 02:38:53;;;;;;;1999.90;999.90;;;;;;;14.03;100.00;95406.38;5099127;28;20252;-60
2022/05/28 02:41:19;;;;;;;1999.90;999.90;;;;;;;14.04;100.00;95407.91;5099194;28;20184;-60
2022/05/28 02:43:45;;;;;;;1999.90;999.90;;;;;;;14.06;100.00;95402.75;5099740;28;20212;-59
2022/05/28 02:46:10;;;;;;;1999.90;999.90;;;;;;;14.03;100.00;95402.84;5099159;28;20188;-62
2022/05/28 02:48:38;;;;;;;1999.90;999.90;;;;;;;13.99;100.00;95405.66;5099240;28;20296;-61
2022/05/28 02:51:12;;;;;;;1999.90;999.90;;;;;;;14.00;100.00;95406.44;5099012;28;20195;-62
2022/05/28 02:53:38;;;;;;;1999.90;999.90;;;;;;;14.01;100.00;95406.00;5099841;28;20212;-62
2022/05/28 02:56:04;;;;;;;1999.90;999.90;;;;;;;13.97;100.00;95404.53;5098867;28;20202;-62
2022/05/28 02:58:29;;;;;;;1999.90;999.90;;;;;;;14.03;100.00;95409.13;5117119;28;20198;-62
2022/05/28 03:00:55;;;;;;;1999.90;999.90;;;;;;;14.02;100.00;95402.06;5099014;28;20188;-62
2022/05/28 03:03:21;;;;;;;1999.90;999.90;;;;;;;14.01;100.00;95411.50;5098862;28;20184;-62
2022/05/28 03:05:51;;;;;;;1999.90;999.90;;;;;;;14.00;100.00;95409.19;5098709;28;20218;-62
2022/05/28 03:08:17;;;;;;;1999.90;999.90;;;;;;;14.05;100.00;95408.66;5099458;28;20187;-62
2022/05/28 03:10:44;;;;;;;1999.90;999.90;;;;;;;14.03;100.00;95409.13;5098665;28;20184;-61
2022/05/28 03:13:10;;;;;;;1999.90;999.90;;;;;;;14.04;100.00;95416.16;5098809;28;20188;-61
2022/05/28 03:15:35;;;;;;;1999.90;999.90;;;;;;;14.01;100.00;95417.00;5098608;28;20190;-61
2022/05/28 03:18:01;;;;;;;1999.90;999.90;;;;;;;13.92;100.00;95419.56;5098499;28;20287;-61
2022/05/28 03:20:27;;;;;;;1999.90;999.90;;;;;;;13.95;100.00;95424.19;5099041;28;20187;-62
2022/05/28 03:22:52;;;;;;;1999.90;999.90;;;;;;;13.91;100.00;95428.97;5098405;28;20325;-61
2022/05/28 03:25:18;;;;;;;1999.90;999.90;;;;;;;13.98;100.00;95428.81;5098848;28;20278;-63
2022/05/28 03:27:43;;;;;;;1999.90;999.90;;;;;;;14.04;100.00;95426.34;5098621;28;20214;-62
2022/05/28 03:30:09;;;;;;;1999.90;999.90;;;;;;;14.05;100.00;95428.69;5098669;28;20270;-61
2022/05/28 03:32:35;;;;;;;1999.90;999.90;;;;;;;13.98;100.00;95423.34;5098291;28;20191;-61
2022/05/28 03:35:00;;;;;;;1999.90;999.90;;;;;;;13.90;100.00;95432.91;5098351;28;20208;-62
2022/05/28 03:37:25;;;;;;;1999.90;999.90;;;;;;;13.81;100.00;95435.47;5098681;28;20187;-62
2022/05/28 03:39:51;;;;;;;1999.90;999.90;;;;;;;13.79;100.00;95437.06;5098330;28;20190;-61
2022/05/28 03:42:16;;;;;;;1999.90;999.90;;;;;;;13.75;100.00;95430.88;5098453;28;20184;-63
2022/05/28 03:44:41;;;;;;;1999.90;999.90;;;;;;;13.71;100.00;95430.97;5098565;28;20202;-63
2022/05/28 03:47:07;;;;;;;1999.90;999.90;;;;;;;13.73;100.00;95436.78;5098459;28;20191;-63
2022/05/28 03:49:36;;;;;;;1999.90;999.90;;;;;;;13.81;100.00;95445.66;5116643;28;20195;-64
2022/05/28 03:52:02;;;;;;;1999.90;999.90;;;;;;;13.70;100.00;95451.38;5098265;28;20187;-63
2022/05/28 03:54:27;;;;;;;1999.90;999.90;;;;;;;13.76;100.00;95449.66;5098246;28;20320;-63
2022/05/28 03:56:57;;;;;;;1999.90;999.90;;;;;;;13.73;100.00;95450.50;5098030;28;20195;-62
2022/05/28 03:59:22;;;;;;;1999.90;999.90;;;;;;;13.79;100.00;95451.56;5098437;28;20206;-61
2022/05/28 04:01:47;;;;;;;1999.90;999.90;;;;;;;13.85;100.00;95458.13;5098666;28;20195;-66
2022/05/28 04:04:13;;;;;;;1999.90;999.90;;;;;;;13.87;100.00;95465.94;5116056;28;20191;-62
2022/05/28 04:06:38;;;;;;;1999.90;999.90;;;;;;;13.87;100.00;95466.69;5098627;28;20219;-62
2022/05/28 04:09:05;;;;;;;1999.90;999.90;;;;;;;13.86;100.00;95476.16;5098096;28;20270;-61
2022/05/28 04:11:30;;;;;;;1999.90;999.90;;;;;;;13.80;100.00;95461.34;5098147;28;20179;-62
2022/05/28 04:13:56;;;;;;;1999.90;999.90;;;;;;;13.81;100.00;95462.91;5097747;28;20215;-62
2022/05/28 04:16:22;;;;;;;1999.90;999.90;;;;;;;13.71;100.00;95480.34;5097825;28;20184;-63
2022/05/28 04:18:47;;;;;;;1999.90;999.90;;;;;;;13.67;100.00;95479.66;5098146;28;20184;-62
2022/05/28 04:21:13;;;;;;;1999.90;999.90;;;;;;;13.63;100.00;95483.66;5097728;28;20279;-61
2022/05/28 04:23:38;;;;;;;1999.90;999.90;;;;;;;13.64;100.00;95485.97;5097492;28;20263;-62
2022/05/28 04:26:04;;;;;;;1999.90;999.90;;;;;;;13.78;100.00;95473.94;5098390;28;20215;-62
2022/05/28 04:28:30;;;;;;;1999.90;999.90;;;;;;;13.87;100.00;95472.19;5098047;28;20175;-62
2022/05/28 04:30:55;;;;;;;1999.90;999.90;;;;;;;14.02;100.00;95495.44;5097643;28;20297;-62
2022/05/28 04:33:21;;;;;;;1999.90;999.90;;;;;;;14.17;100.00;95491.19;5115576;28;20206;-62
2022/05/28 04:35:46;;;;;;;1999.90;999.90;;;;;;;14.33;100.00;95494.03;5097625;28;20223;-62
2022/05/28 04:38:11;;;;;;;1999.90;999.90;;;;;;;14.44;100.00;95500.09;5097648;28;20198;-62
2022/05/28 04:40:37;;;;;;;1999.90;999.90;;;;;;;14.23;100.00;95506.03;5097459;28;20192;-64
2022/05/28 04:43:02;;;;;;;1999.90;999.90;;;;;;;14.43;100.00;95498.56;5097422;28;20184;-64
2022/05/28 04:45:27;;;;;;;1999.90;999.90;;;;;;;14.53;100.00;95505.00;5097399;28;20183;-64
2022/05/28 04:47:54;;;;;;;1999.90;999.90;;;;;;;14.27;100.00;95512.22;5097138;28;20187;-64
2022/05/28 04:50:19;;;;;;;1999.90;999.90;;;;;;;14.16;100.00;95517.13;5096868;28;20187;-65
2022/05/28 04:52:44;;;;;;;1999.90;999.90;;;;;;;14.21;100.00;95519.41;5097181;28;20186;-64
2022/05/28 04:55:11;;;;;;;1999.90;999.90;;;;;;;14.42;100.00;95507.97;5097652;28;20211;-61
2022/05/28 04:57:37;;;;;;;1999.90;999.90;;;;;;;14.35;100.00;95521.84;5097380;28;20187;-60
2022/05/28 05:00:08;;;;;;;1999.90;999.90;;;;;;;14.20;100.00;95508.81;5097211;28;20191;-62
2022/05/28 05:02:33;;;;;;;1999.90;999.90;;;;;;;14.43;100.00;95504.03;5097444;28;20191;-62
2022/05/28 05:04:59;;;;;;;1999.90;999.90;;;;;;;14.56;100.00;95502.19;5097493;28;20187;-63
2022/05/28 05:07:24;;;;;;;1999.90;999.90;;;;;;;14.78;100.00;95510.72;5097355;28;20187;-63
2022/05/28 05:09:50;;;;;;;1999.90;999.90;;;;;;;14.78;100.00;95514.25;5097096;28;20190;-63
2022/05/28 05:12:16;;;;;;;1999.90;999.90;;;;;;;15.01;100.00;95513.34;5097015;28;20279;-63
2022/05/28 05:14:41;;;;;;;1999.90;999.90;;;;;;;15.08;100.00;95518.69;5096867;28;20199;-62
2022/05/28 05:17:06;;;;;;;1999.90;999.90;;;;;;;15.13;100.00;95523.66;5097254;28;20306;-60
2022/05/28 05:19:32;;;;;;;1999.90;999.90;;;;;;;15.08;100.00;95516.69;5096805;28;20188;-60
2022/05/28 05:21:57;;;;;;;1999.90;999.90;;;;;;;14.94;100.00;95525.25;5096802;28;20195;-60
2022/05/28 05:24:24;;;;;;;1999.90;999.90;;;;;;;14.74;100.00;95529.28;5096683;28;20186;-60
2022/05/28 05:26:49;;;;;;;1999.90;999.90;;;;;;;15.57;100.00;95534.78;5097233;28;20188;-60
2022/05/28 05:29:14;;;;;;;1999.90;999.90;;;;;;;15.84;100.00;95535.25;5096612;28;20172;-59
2022/05/28 05:31:40;;;;;;;1999.90;999.90;;;;;;;15.35;100.00;95536.53;5097400;28;20187;-64
2022/05/28 05:34:07;;;;;;;1999.90;999.90;;;;;;;16.05;99.97;95548.47;5097118;28;20218;-59
2022/05/28 05:36:32;;;;;;;1999.90;999.90;;;;;;;17.56;91.39;95540.47;5096505;28;20199;-59
2022/05/28 05:38:58;;;;;;;1999.90;999.90;;;;;;;18.19;83.80;95549.34;5096363;28;20179;-59
2022/05/28 05:41:23;;;;;;;1999.90;999.90;;;;;;;18.03;80.47;95557.81;5096179;28;20189;-60
2022/05/28 05:43:49;;;;;;;1999.90;999.90;;;;;;;18.01;79.60;95560.25;5096357;28;20253;-59
2022/05/28 05:46:14;;;;;;;1999.90;999.90;;;;;;;17.74;79.68;95558.00;5096392;28;20196;-59
2022/05/28 05:48:39;;;;;;;1999.90;999.90;;;;;;;17.17;82.32;95568.50;5096484;28;20180;-59
2022/05/28 05:51:11;;;;;;;1999.90;999.90;;;;;;;17.35;80.15;95566.75;5096555;28;20218;-63
2022/05/28 05:53:37;;;;;;;1999.90;999.90;;;;;;;17.69;81.90;95561.31;5096692;28;20287;-58
2022/05/28 05:56:03;;;;;;;1999.90;999.90;;;;;;;18.54;76.54;95553.66;5096468;28;20223;-60
2022/05/28 05:58:29;;;;;;;1999.90;999.90;;;;;;;17.63;78.72;95567.88;5096198;28;20187;-59
2022/05/28 06:00:54;;;;;;;1999.90;999.90;;;;;;;17.23;80.77;95556.47;5095075;28;20291;-59
2022/05/28 06:03:20;;;;;;;1999.90;999.90;;;;;;;17.07;81.44;95555.81;5096237;28;20179;-60
2022/05/28 06:05:45;;;;;;;1999.90;999.90;;;;;;;17.06;81.82;95560.56;5095835;28;20180;-59
2022/05/28 06:08:12;;;;;;;1999.90;999.90;;;;;;;17.00;84.88;95564.31;5096153;28;20179;-64
2022/05/28 06:10:37;;;;;;;1999.90;999.90;;;;;;;17.66;83.96;95555.94;5096322;28;20203;-70
2022/05/28 06:13:03;;;;;;;1999.90;999.90;;;;;;;17.67;80.83;95551.94;5096142;28;20171;-57
2022/05/28 06:15:28;;;;;;;1999.90;999.90;;;;;;;18.21;82.87;95549.69;5096175;28;20176;-58
2022/05/28 06:17:53;;;;;;;1999.90;999.90;;;;;;;19.37;75.75;95548.91;5096166;28;20203;-58
2022/05/28 06:20:19;;;;;;;1999.90;999.90;;;;;;;20.17;70.78;95547.56;5095867;28;20185;-57
2022/05/28 06:22:44;;;;;;;1999.90;999.90;;;;;;;21.10;64.48;95543.03;5095869;28;20175;-58
2022/05/28 06:25:10;;;;;;;1999.90;999.90;;;;;;;20.96;58.09;95544.44;5113774;28;20176;-59
2022/05/28 06:27:35;;;;;;;1999.90;999.90;;;;;;;20.90;57.48;95554.59;5096450;28;20218;-65
2022/05/28 06:30:01;;;;;;;1999.90;999.90;;;;;;;20.21;60.10;95555.75;5096472;28;20171;-64
2022/05/28 06:32:26;;;;;;;1999.90;999.90;;;;;;;20.13;57.82;95560.81;5095906;28;20184;-66
2022/05/28 06:34:53;;;;;;;1999.90;999.90;;;;;;;20.36;54.24;95559.47;5095685;28;20199;-66
2022/05/28 06:37:18;;;;;;;1999.90;999.90;;;;;;;21.39;53.46;95551.56;5095619;28;20206;-64
2022/05/28 06:39:44;;;;;;;1999.90;999.90;;;;;;;21.96;50.59;95551.13;5095638;28;20176;-66
2022/05/28 06:42:09;;;;;;;1999.90;999.90;;;;;;;22.43;48.19;95553.88;5095848;28;20184;-65
2022/05/28 06:44:34;;;;;;;1999.90;999.90;;;;;;;21.92;47.48;95533.06;5095508;28;20259;-64
2022/05/28 06:47:00;;;;;;;1999.90;999.90;;;;;;;21.96;47.99;95542.78;5113595;28;20180;-58
2022/05/28 06:49:26;;;;;;;1999.90;999.90;;;;;;;22.71;46.44;95539.75;5095657;28;20190;-63
2022/05/28 06:51:52;;;;;;;1999.90;999.90;;;;;;;21.47;47.74;95536.09;5095481;28;20184;-63
2022/05/28 06:54:17;;;;;;;1999.90;999.90;;;;;;;22.72;46.00;95535.75;5095534;28;20196;-63
2022/05/28 06:56:43;;;;;;;1999.90;999.90;;;;;;;22.22;46.77;95543.84;5095408;28;20176;-64
2022/05/28 06:59:08;;;;;;;1999.90;999.90;;;;;;;23.52;45.24;95536.13;5095460;28;20199;-64
2022/05/28 07:01:34;;;;;;;1999.90;999.90;;;;;;;25.09;44.45;95537.88;5095608;28;20211;-63
2022/05/28 07:03:59;;;;;;;1999.90;999.90;;;;;;;25.01;42.34;95552.78;5095527;28;20184;-62
2022/05/28 07:06:27;;;;;;;1999.90;999.90;;;;;;;24.56;45.98;95547.97;5095784;28;20198;-66
2022/05/28 07:08:52;;;;;;;1999.90;999.90;;;;;;;23.84;43.97;95554.59;5095228;28;20270;-65
2022/05/28 07:11:17;;;;;;;1999.90;999.90;;;;;;;22.95;45.33;95548.81;5095530;28;20207;-65
2022/05/28 07:13:43;;;;;;;1999.90;999.90;;;;;;;23.22;44.95;95537.41;5098427;28;20212;-66
2022/05/28 07:16:09;;;;;;;1999.90;999.90;;;;;;;23.40;43.06;95549.13;5098560;28;20180;-65
2022/05/28 07:18:36;;;;;;;1999.90;999.90;;;;;;;22.91;44.89;95559.38;5098500;28;20262;-65
2022/05/28 07:21:02;;;;;;;1999.90;999.90;;;;;;;23.28;43.63;95560.56;5098584;28;20215;-65
2022/05/28 07:23:29;;;;;;;1999.90;999.90;;;;;;;22.17;46.50;95569.56;5098625;28;20184;-63
2022/05/28 07:26:06;;;;;;;1999.90;999.90;;;;;;;22.02;45.94;95552.03;5098355;28;20264;-65
2022/05/28 07:28:33;;;;;;;1999.90;999.90;;;;;;;21.90;47.74;95563.38;5098434;28;20179;-62
2022/05/28 07:31:08;;;;;;;1999.90;999.90;;;;;;;22.17;48.11;95552.84;5098278;28;20183;-63
2022/05/28 07:33:37;;;;;;;1999.90;999.90;;;;;;;22.41;46.95;95552.84;5098091;28;20225;-64
2022/05/28 07:36:03;;;;;;;1999.90;999.90;;;;;;;23.79;46.03;95544.13;5098376;28;20186;-63
2022/05/28 07:38:30;;;;;;;1999.90;999.90;;;;;;;25.52;41.79;95541.56;5098375;28;20183;-63
2022/05/28 07:40:56;;;;;;;1999.90;999.90;;;;;;;25.52;40.78;95538.78;5116320;28;20176;-63
2022/05/28 07:43:22;;;;;;;1999.90;999.90;;;;;;;26.25;39.72;95530.34;5098294;28;20178;-66
2022/05/28 07:45:47;;;;;;;1999.90;999.90;;;;;;;26.59;39.05;95534.84;5098476;28;20274;-67
2022/05/28 07:48:15;;;;;;;1999.90;999.90;;;;;;;25.60;39.28;95534.25;5098157;28;20175;-68
2022/05/28 07:50:41;;;;;;;1999.90;999.90;;;;;;;24.50;41.31;95552.69;5097979;28;20176;-67
2022/05/28 07:53:07;;;;;;;1999.90;999.90;;;;;;;24.16;42.50;95545.19;5097623;28;20186;-72
2022/05/28 07:55:33;;;;;;;1999.90;999.90;;;;;;;23.68;43.99;95549.53;5098321;28;20184;-71
2022/05/28 07:58:07;;;;;;;1999.90;999.90;;;;;;;24.36;42.45;95545.94;5097977;28;20229;-68
2022/05/28 08:00:36;;;;;;;1999.90;999.90;;;;;;;24.46;40.31;95550.13;5098552;28;20187;-68
2022/05/28 08:03:01;;;;;;;1999.90;999.90;;;;;;;25.46;38.68;95543.56;5097652;28;20184;-60
2022/05/28 08:05:27;;;;;;;1999.90;999.90;;;;;;;26.09;38.08;95536.63;5097867;28;20311;-61
2022/05/28 08:07:52;;;;;;;1999.90;999.90;;;;;;;26.45;36.20;95533.00;5097759;28;20266;-60
2022/05/28 08:10:17;;;;;;;1999.90;999.90;;;;;;;26.03;37.06;95541.44;5098155;28;20245;-60
2022/05/28 08:12:43;;;;;;;1999.90;999.90;;;;;;;26.09;36.32;95538.66;5097869;28;20252;-59
2022/05/28 08:15:10;;;;;;;1999.90;999.90;;;;;;;26.40;35.82;95535.78;5098377;28;20200;-62
2022/05/28 08:17:35;;;;;;;1999.90;999.90;;;;;;;26.87;34.25;95534.91;5097847;28;20199;-69
2022/05/28 08:20:01;;;;;;;1999.90;999.90;;;;;;;27.09;32.86;95546.94;5098079;28;20183;-64
2022/05/28 08:25:11;;;;;;;1999.90;999.90;;;;;;;26.10;33.26;95554.97;5115006;28;20195;-63
2022/05/28 08:27:37;;;;;;;1999.90;999.90;;;;;;;25.87;34.69;95550.47;5097255;28;20189;-64
2022/05/28 08:30:04;;;;;;;1999.90;999.90;;;;;;;26.38;32.90;95552.31;5097527;28;20255;-63
2022/05/28 08:32:29;;;;;;;1999.90;999.90;;;;;;;27.12;32.19;95551.56;5097508;28;20186;-63
2022/05/28 08:34:54;;;;;;;1999.90;999.90;;;;;;;27.70;31.38;95538.59;5097524;28;20302;-64
2022/05/28 08:37:20;;;;;;;1999.90;999.90;;;;;;;26.74;33.36;95543.81;5097291;28;20187;-63
2022/05/28 08:39:45;;;;;;;1999.90;999.90;;;;;;;26.68;33.11;95551.44;5097117;28;20190;-59
2022/05/28 08:42:13;;;;;;;1999.90;999.90;;;;;;;25.23;35.23;95541.81;5097346;28;20270;-57
2022/05/28 08:44:41;;;;;;;1999.90;999.90;;;;;;;27.31;33.92;95547.00;5097267;28;20195;-59
2022/05/28 08:47:18;;;;;;;1999.90;999.90;;;;;;;27.25;32.43;95546.25;5097038;28;20191;-59
2022/05/28 08:49:45;;;;;;;1999.90;999.90;;;;;;;27.65;33.22;95534.50;5097211;28;20183;-58
2022/05/28 08:52:13;;;;;;;1999.90;999.90;;;;;;;26.72;31.45;95546.34;5097192;28;20180;-59
2022/05/28 08:54:56;;;;;;;1999.90;999.90;;;;;;;27.05;31.53;95545.66;5097125;28;20211;-72
2022/05/28 08:57:28;;;;;;;1999.90;999.90;;;;;;;26.15;32.71;95554.22;5097704;28;20187;-65
2022/05/28 08:59:59;;;;;;;1999.90;999.90;;;;;;;26.17;32.32;95553.72;5097173;28;20206;-66
2022/05/28 09:02:40;;;;;;;1999.90;999.90;;;;;;;26.09;32.84;95556.25;5097476;28;20186;-65
2022/05/28 09:05:31;;;;;;;1999.90;999.90;;;;;;;27.03;31.57;95548.22;5097355;28;20182;-67
2022/05/28 09:08:03;;;;;;;1999.90;999.90;;;;;;;26.29;31.25;95553.28;5087596;28;20192;-66
2022/05/28 09:10:39;;;;;;;1999.90;999.90;;;;;;;26.09;30.60;95542.25;5097327;28;20184;-65
2022/05/28 09:13:20;;;;;;;1999.90;999.90;;;;;;;27.28;29.69;95552.88;5097197;28;20286;-64
2022/05/28 09:15:45;;;;;;;1999.90;999.90;;;;;;;27.46;29.99;95555.94;5097105;28;20187;-68
2022/05/28 09:18:12;;;;;;;1999.90;999.90;;;;;;;26.06;30.83;95562.84;5097452;28;20207;-66
2022/05/28 09:20:40;;;;;;;1999.90;999.90;;;;;;;27.27;29.96;95540.88;5096738;28;20179;-65
2022/05/28 09:23:06;;;;;;;1999.90;999.90;;;;;;;27.12;28.93;95545.16;5096774;28;20211;-70
2022/05/28 09:25:37;;;;;;;1999.90;999.90;;;;;;;26.46;29.57;95544.94;5096701;28;20195;-65
2022/05/28 09:28:28;;;;;;;1999.90;999.90;;;;;;;26.52;29.29;95543.72;5097078;28;20234;-66
2022/05/28 09:31:11;;;;;;;1999.90;999.90;;;;;;;27.30;28.25;95545.47;5096835;28;20195;-66
2022/05/28 09:33:39;;;;;;;1999.90;999.90;;;;;;;27.76;28.24;95536.53;5096787;28;20200;-64
2022/05/28 09:36:35;;;;;;;1999.90;999.90;;;;;;;27.48;27.56;95542.19;5096521;28;20194;-63
2022/05/28 09:39:10;;;;;;;1999.90;999.90;;;;;;;26.53;27.29;95545.25;5097157;28;20188;-65
2022/05/28 09:42:01;;;;;;;1999.90;999.90;;;;;;;25.98;28.70;95544.19;5096095;28;20186;-64
2022/05/28 09:44:40;;;;;;;1999.90;999.90;;;;;;;25.50;30.32;95546.91;5096648;28;20180;-66
2022/05/28 09:47:19;;;;;;;1999.90;999.90;;;;;;;25.97;29.65;95543.44;5096477;28;20180;-65
2022/05/28 09:49:50;;;;;;;1999.90;999.90;;;;;;;27.43;28.40;95542.91;5096194;28;20184;-61
2022/05/28 09:52:29;;;;;;;1999.90;999.90;;;;;;;27.63;27.10;95534.25;5096831;28;20186;-73
2022/05/28 09:55:14;;;;;;;1999.90;999.90;;;;;;;27.00;28.60;95532.41;5095980;28;20205;-68
2022/05/28 09:58:00;;;;;;;1999.90;999.90;;;;;;;25.34;30.52;95536.34;5096173;28;20193;-71
2022/05/28 10:00:26;;;;;;;1999.90;999.90;;;;;;;25.80;30.68;95534.16;5096478;28;20183;-70
2022/05/28 10:05:53;;;;;;;1999.90;999.90;;;;;;;26.56;29.51;95530.22;5114859;28;20187;-69
2022/05/28 10:08:18;;;;;;;1999.90;999.90;;;;;;;27.25;29.64;95521.00;5096323;28;20191;-67
2022/05/28 10:10:59;;;;;;;1999.90;999.90;;;;;;;27.56;28.69;95519.97;5096640;28;20329;-64
2022/05/28 10:13:24;;;;;;;1999.90;999.90;;;;;;;26.89;31.03;95530.34;5096141;28;20204;-64
2022/05/28 10:15:54;;;;;;;1999.90;999.90;;;;;;;27.35;28.34;95516.66;5095849;28;20259;-65
2022/05/28 10:18:25;;;;;;;1999.90;999.90;;;;;;;26.07;30.17;95530.75;5095807;28;20203;-65
2022/05/28 10:21:07;;;;;;;1999.90;999.90;;;;;;;26.38;29.81;95527.09;5095899;28;20180;-65
2022/05/28 10:23:35;;;;;;;1999.90;999.90;;;;;;;27.34;28.36;95512.31;5096198;28;20278;-65
2022/05/28 10:26:01;;;;;;;1999.90;999.90;;;;;;;26.08;31.08;95518.31;5095931;28;20237;-62
2022/05/28 10:28:44;;;;;;;1999.90;999.90;;;;;;;26.43;30.41;95513.09;5095925;28;20176;-68
2022/05/28 10:31:18;;;;;;;1999.90;999.90;;;;;;;27.38;28.75;95507.22;5096515;28;20271;-70
2022/05/28 10:33:45;;;;;;;1999.90;999.90;;;;;;;26.39;29.25;95518.19;5095730;28;20214;-70
2022/05/28 10:36:18;;;;;;;1999.90;999.90;;;;;;;24.07;32.83;95528.56;5096071;28;20187;-67
2022/05/28 10:38:44;;;;;;;1999.90;999.90;;;;;;;22.93;33.33;95529.00;5096172;28;20192;-66
2022/05/28 10:41:21;;;;;;;1999.90;999.90;;;;;;;23.02;33.81;95526.88;5095861;28;20180;-67
2022/05/28 10:43:47;;;;;;;1999.90;999.90;;;;;;;24.76;32.04;95520.00;5095557;28;20187;-62
2022/05/28 10:46:42;;;;;;;1999.90;999.90;;;;;;;24.97;31.70;95519.47;5095322;28;20218;-64
2022/05/28 10:49:27;;;;;;;1999.90;999.90;;;;;;;26.08;29.71;95511.94;5099573;28;20183;-67
2022/05/28 10:52:09;;;;;;;1999.90;999.90;;;;;;;25.69;31.12;95517.28;5098891;28;20236;-67
2022/05/28 10:54:56;;;;;;;1999.90;999.90;;;;;;;25.04;31.97;95512.66;5098859;28;20203;-67
2022/05/28 10:57:28;;;;;;;1999.90;999.90;;;;;;;26.13;30.74;95500.75;5098885;28;20231;-66
2022/05/28 11:00:03;;;;;;;1999.90;999.90;;;;;;;25.22;32.14;95515.09;5098971;28;20180;-67
2022/05/28 11:03:06;;;;;;;1999.90;999.90;;;;;;;25.74;30.77;95502.53;5098918;28;20194;-63
2022/05/28 11:05:34;;;;;;;1999.90;999.90;;;;;;;24.23;33.32;95519.63;5098688;28;20187;-67